createdAt,value
2017-03-11T00:00:24.143Z,62
2017-03-11T00:01:40.541Z,62
2017-03-11T00:02:56.993Z,62
2017-03-11T00:04:17.505Z,62
2017-03-11T00:05:33.376Z,62
2017-03-11T00:06:46.917Z,62
2017-03-11T00:08:00.759Z,62
2017-03-11T00:09:14.394Z,62
2017-03-11T00:10:27.856Z,62
2017-03-11T00:11:41.838Z,62
2017-03-11T00:12:55.269Z,62
2017-03-11T00:14:09.130Z,62
2017-03-11T00:15:22.587Z,62
2017-03-11T00:16:36.433Z,62
2017-03-11T00:17:50.433Z,62
2017-03-11T00:19:04.068Z,62
2017-03-11T00:20:18.399Z,62
2017-03-11T00:21:32.248Z,62
2017-03-11T00:22:45.706Z,62
2017-03-11T00:23:59.583Z,62
2017-03-11T00:25:13.534Z,62
2017-03-11T00:26:27.373Z,62
2017-03-11T00:27:40.808Z,62
2017-03-11T00:28:54.290Z,62
2017-03-11T00:30:08.252Z,62
2017-03-11T00:31:21.704Z,62
2017-03-11T00:32:35.235Z,62
2017-03-11T00:35:18.590Z,62
2017-03-11T00:36:32.069Z,62
2017-03-11T00:37:47.721Z,62
2017-03-11T00:39:01.152Z,62
2017-03-11T00:40:15.113Z,62
2017-03-11T00:41:28.569Z,62
2017-03-11T00:42:42.135Z,62
2017-03-11T00:44:08.281Z,62
2017-03-11T00:45:21.850Z,62
2017-03-11T00:46:35.285Z,62
2017-03-11T00:47:49.130Z,62
2017-03-11T00:49:03.032Z,61
2017-03-11T00:50:16.586Z,61
2017-03-11T00:51:30.450Z,61
2017-03-11T00:52:44.358Z,61
2017-03-11T00:53:58.193Z,61
2017-03-11T00:55:12.263Z,61
2017-03-11T00:56:25.825Z,61
2017-03-11T00:57:39.685Z,61
2017-03-11T00:58:53.133Z,61
2017-03-11T01:00:07.208Z,61
2017-03-11T01:01:21.446Z,61
2017-03-11T01:02:34.940Z,61
2017-03-11T01:03:48.601Z,61
2017-03-11T01:05:02.043Z,61
2017-03-11T01:06:15.604Z,61
2017-03-11T01:07:29.033Z,61
2017-03-11T01:08:42.494Z,61
2017-03-11T01:09:56.352Z,61
2017-03-11T01:11:09.926Z,61
2017-03-11T01:12:23.912Z,61
2017-03-11T01:13:37.365Z,61
2017-03-11T01:14:50.837Z,61
2017-03-11T01:16:04.333Z,61
2017-03-11T01:17:17.936Z,61
2017-03-11T01:18:31.408Z,61
2017-03-11T01:19:44.903Z,61
2017-03-11T01:20:58.939Z,61
2017-03-11T01:22:12.957Z,61
2017-03-11T01:23:27.410Z,61
2017-03-11T01:24:41.767Z,61
2017-03-11T01:25:55.812Z,61
2017-03-11T01:27:09.771Z,61
2017-03-11T01:28:23.526Z,61
2017-03-11T01:29:37.424Z,61
2017-03-11T01:30:51.121Z,61
2017-03-11T01:32:04.615Z,61
2017-03-11T01:33:18.165Z,61
2017-03-11T01:34:31.756Z,61
2017-03-11T01:35:45.195Z,61
2017-03-11T01:36:58.636Z,61
2017-03-11T01:38:13.513Z,61
2017-03-11T01:39:27.340Z,61
2017-03-11T01:40:41.012Z,61
2017-03-11T01:41:54.868Z,61
2017-03-11T01:43:08.327Z,61
2017-03-11T01:44:22.144Z,61
2017-03-11T01:45:35.587Z,61
2017-03-11T01:46:49.706Z,61
2017-03-11T01:48:03.193Z,61
2017-03-11T01:49:16.702Z,61
2017-03-11T01:50:30.139Z,61
2017-03-11T01:51:43.626Z,61
2017-03-11T01:52:57.546Z,61
2017-03-11T01:54:14.293Z,61
2017-03-11T01:55:27.742Z,61
2017-03-11T01:56:41.605Z,61
2017-03-11T01:57:55.443Z,61
2017-03-11T01:59:09.076Z,61
2017-03-11T02:00:23.087Z,61
2017-03-11T02:01:36.568Z,61
2017-03-11T02:02:50.499Z,61
2017-03-11T02:04:04.367Z,61
2017-03-11T02:05:17.945Z,61
2017-03-11T02:06:31.411Z,61
2017-03-11T02:07:44.899Z,61
2017-03-11T02:08:58.780Z,61
2017-03-11T02:10:12.339Z,61
2017-03-11T02:11:25.773Z,61
2017-03-11T02:12:39.644Z,62
2017-03-11T02:13:53.261Z,62
2017-03-11T02:15:26.019Z,61
2017-03-11T02:16:39.431Z,61
2017-03-11T02:17:53.773Z,62
2017-03-11T02:19:07.304Z,62
2017-03-11T02:20:21.288Z,62
2017-03-11T02:21:35.147Z,62
2017-03-11T02:23:08.393Z,62
2017-03-11T02:24:21.835Z,62
2017-03-11T02:25:35.462Z,62
2017-03-11T02:26:49.761Z,62
2017-03-11T02:28:03.280Z,62
2017-03-11T02:29:16.814Z,62
2017-03-11T02:30:30.412Z,62
2017-03-11T02:31:43.891Z,62
2017-03-11T02:32:57.374Z,62
2017-03-11T02:34:10.820Z,62
2017-03-11T02:35:24.393Z,62
2017-03-11T02:36:38.018Z,62
2017-03-11T02:37:51.976Z,62
2017-03-11T02:39:05.429Z,61
2017-03-11T02:40:18.979Z,61
2017-03-11T02:41:32.723Z,61
2017-03-11T02:42:46.725Z,61
2017-03-11T02:44:00.115Z,61
2017-03-11T02:45:13.996Z,61
2017-03-11T02:46:27.531Z,61
2017-03-11T02:47:41.578Z,61
2017-03-11T02:48:55.352Z,61
2017-03-11T02:50:08.834Z,61
2017-03-11T02:51:22.362Z,61
2017-03-11T02:52:36.219Z,61
2017-03-11T02:53:49.656Z,61
2017-03-11T02:55:03.850Z,61
2017-03-11T02:56:17.314Z,61
2017-03-11T02:57:31.055Z,61
2017-03-11T02:58:44.468Z,61
2017-03-11T02:59:57.965Z,61
2017-03-11T03:01:11.389Z,61
2017-03-11T03:02:25.274Z,61
2017-03-11T03:03:38.798Z,61
2017-03-11T03:04:52.232Z,61
2017-03-11T03:06:05.694Z,61
2017-03-11T03:07:19.427Z,61
2017-03-11T03:08:33.299Z,61
2017-03-11T03:09:47.211Z,61
2017-03-11T03:11:03.243Z,61
2017-03-11T03:12:16.769Z,61
2017-03-11T03:13:30.326Z,61
2017-03-11T03:14:43.757Z,61
2017-03-11T03:15:57.299Z,61
2017-03-11T03:17:10.751Z,61
2017-03-11T03:18:24.295Z,61
2017-03-11T03:19:38.173Z,61
2017-03-11T03:20:51.998Z,61
2017-03-11T03:22:05.719Z,61
2017-03-11T03:23:19.223Z,61
2017-03-11T03:25:49.423Z,61
2017-03-11T03:27:02.852Z,61
2017-03-11T03:28:23.050Z,61
2017-03-11T03:29:44.188Z,61
2017-03-11T03:31:05.649Z,61
2017-03-11T03:32:27.150Z,61
2017-03-11T03:33:49.037Z,61
2017-03-11T03:35:10.148Z,61
2017-03-11T03:36:31.819Z,61
2017-03-11T03:37:52.957Z,61
2017-03-11T03:39:14.178Z,61
2017-03-11T03:40:34.146Z,61
2017-03-11T03:41:55.390Z,61
2017-03-11T03:43:15.255Z,61
2017-03-11T03:44:35.276Z,61
2017-03-11T03:45:49.767Z,61
2017-03-11T03:47:03.211Z,61
2017-03-11T03:48:16.818Z,61
2017-03-11T03:49:30.758Z,61
2017-03-11T03:50:44.213Z,61
2017-03-11T03:52:04.332Z,61
2017-03-11T03:53:17.808Z,61
2017-03-11T03:54:31.425Z,61
2017-03-11T03:55:44.860Z,61
2017-03-11T03:56:58.539Z,61
2017-03-11T03:58:12.382Z,61
2017-03-11T03:59:28.441Z,61
2017-03-11T04:00:43.976Z,61
2017-03-11T04:01:58.761Z,61
2017-03-11T04:03:12.555Z,61
2017-03-11T04:04:26.112Z,61
2017-03-11T04:05:39.564Z,61
2017-03-11T04:06:52.992Z,61
2017-03-11T04:08:06.481Z,61
2017-03-11T04:09:20.434Z,61
2017-03-11T04:10:33.978Z,61
2017-03-11T04:11:47.386Z,60
2017-03-11T04:13:00.829Z,60
2017-03-11T04:14:14.271Z,60
2017-03-11T04:15:27.876Z,60
2017-03-11T04:16:41.384Z,60
2017-03-11T04:17:54.823Z,60
2017-03-11T04:19:08.270Z,60
2017-03-11T04:20:21.811Z,60
2017-03-11T04:21:35.231Z,60
2017-03-11T04:22:48.721Z,60
2017-03-11T04:24:02.317Z,60
2017-03-11T04:25:15.864Z,60
2017-03-11T04:26:29.305Z,60
2017-03-11T04:27:43.139Z,60
2017-03-11T04:28:56.563Z,60
2017-03-11T04:30:12.161Z,60
2017-03-11T04:31:25.669Z,60
2017-03-11T04:32:40.054Z,60
2017-03-11T04:33:54.084Z,60
2017-03-11T04:35:07.951Z,60
2017-03-11T04:36:21.612Z,59
2017-03-11T04:37:35.480Z,59
2017-03-11T04:38:49.463Z,59
2017-03-11T04:40:02.955Z,59
2017-03-11T04:41:16.488Z,59
2017-03-11T04:42:30.078Z,59
2017-03-11T04:43:43.484Z,59
2017-03-11T04:44:56.992Z,59
2017-03-11T04:46:10.451Z,60
2017-03-11T04:47:24.007Z,59
2017-03-11T04:48:37.596Z,59
2017-03-11T04:49:51.039Z,60
2017-03-11T04:51:04.456Z,60
2017-03-11T04:52:18.243Z,60
2017-03-11T04:53:31.644Z,60
2017-03-11T04:54:45.108Z,60
2017-03-11T04:55:58.528Z,60
2017-03-11T04:57:12.038Z,60
2017-03-11T04:58:25.484Z,59
2017-03-11T04:59:38.962Z,59
2017-03-11T05:00:52.379Z,59
2017-03-11T05:02:05.844Z,60
2017-03-11T05:03:19.360Z,60
2017-03-11T05:04:32.775Z,60
2017-03-11T05:05:46.207Z,60
2017-03-11T05:06:59.647Z,60
2017-03-11T05:08:13.157Z,60
2017-03-11T05:09:27.229Z,60
2017-03-11T05:10:40.693Z,60
2017-03-11T05:11:54.525Z,60
2017-03-11T05:13:08.020Z,60
2017-03-11T05:14:21.415Z,60
2017-03-11T05:15:35.348Z,60
2017-03-11T05:16:48.807Z,60
2017-03-11T05:18:02.243Z,60
2017-03-11T05:19:16.149Z,60
2017-03-11T05:20:29.625Z,60
2017-03-11T05:21:43.112Z,60
2017-03-11T05:22:56.621Z,60
2017-03-11T05:24:11.126Z,60
2017-03-11T05:25:24.792Z,60
2017-03-11T05:26:38.428Z,60
2017-03-11T05:27:52.276Z,60
2017-03-11T05:29:05.758Z,60
2017-03-11T05:30:19.255Z,60
2017-03-11T05:31:32.724Z,60
2017-03-11T05:32:46.202Z,60
2017-03-11T05:33:59.671Z,60
2017-03-11T05:35:13.730Z,60
2017-03-11T05:36:27.193Z,60
2017-03-11T05:37:41.124Z,60
2017-03-11T05:38:54.594Z,60
2017-03-11T05:40:08.199Z,60
2017-03-11T05:41:53.678Z,60
2017-03-11T05:43:07.575Z,60
2017-03-11T05:44:21.021Z,60
2017-03-11T05:45:34.606Z,60
2017-03-11T05:47:03.707Z,60
2017-03-11T05:48:17.584Z,60
2017-03-11T05:49:31.421Z,60
2017-03-11T05:50:45.360Z,60
2017-03-11T05:51:59.206Z,60
2017-03-11T05:53:12.631Z,60
2017-03-11T05:54:26.142Z,60
2017-03-11T05:55:39.647Z,60
2017-03-11T05:56:53.323Z,60
2017-03-11T05:58:07.014Z,60
2017-03-11T05:59:20.442Z,60
2017-03-11T06:00:33.974Z,60
2017-03-11T06:01:47.841Z,60
2017-03-11T06:03:01.318Z,60
2017-03-11T06:04:14.823Z,61
2017-03-11T06:05:28.263Z,61
2017-03-11T06:06:42.205Z,61
2017-03-11T06:07:55.840Z,61
2017-03-11T06:09:09.624Z,61
2017-03-11T06:10:23.512Z,61
2017-03-11T06:11:37.045Z,61
2017-03-11T06:12:50.491Z,61
2017-03-11T06:14:03.935Z,61
2017-03-11T06:15:17.394Z,61
2017-03-11T06:16:31.439Z,61
2017-03-11T06:17:44.915Z,61
2017-03-11T06:18:58.387Z,61
2017-03-11T06:20:11.829Z,61
2017-03-11T06:21:25.322Z,60
2017-03-11T06:22:38.875Z,61
2017-03-11T06:23:52.305Z,61
2017-03-11T06:25:05.692Z,61
2017-03-11T06:26:19.136Z,61
2017-03-11T06:27:32.709Z,61
2017-03-11T06:28:46.205Z,61
2017-03-11T06:30:00.056Z,61
2017-03-11T06:31:13.610Z,61
2017-03-11T06:32:27.142Z,61
2017-03-11T06:33:40.595Z,61
2017-03-11T06:34:54.042Z,61
2017-03-11T06:36:07.946Z,61
2017-03-11T06:37:21.386Z,61
2017-03-11T06:38:35.424Z,61
2017-03-11T06:39:48.925Z,61
2017-03-11T06:41:02.407Z,61
2017-03-11T06:42:15.930Z,61
2017-03-11T06:43:29.464Z,61
2017-03-11T06:44:42.914Z,61
2017-03-11T06:45:56.422Z,61
2017-03-11T06:47:09.877Z,61
2017-03-11T06:48:23.485Z,61
2017-03-11T06:49:36.926Z,61
2017-03-11T06:50:50.401Z,61
2017-03-11T06:52:04.224Z,61
2017-03-11T06:53:17.649Z,61
2017-03-11T06:54:31.594Z,61
2017-03-11T06:55:45.014Z,61
2017-03-11T06:56:58.604Z,62
2017-03-11T06:58:12.078Z,62
2017-03-11T06:59:26.030Z,62
2017-03-11T07:00:39.466Z,62
2017-03-11T07:01:53.001Z,62
2017-03-11T07:03:08.998Z,62
2017-03-11T07:04:22.630Z,62
2017-03-11T07:05:36.083Z,62
2017-03-11T07:06:49.954Z,62
2017-03-11T07:08:03.394Z,62
2017-03-11T07:09:17.219Z,62
2017-03-11T07:10:30.766Z,62
2017-03-11T07:11:44.221Z,62
2017-03-11T07:12:57.661Z,62
2017-03-11T07:14:11.531Z,62
2017-03-11T07:15:25.481Z,62
2017-03-11T07:16:38.968Z,62
2017-03-11T07:17:52.806Z,62
2017-03-11T07:19:06.688Z,62
2017-03-11T07:20:20.240Z,62
2017-03-11T07:21:34.407Z,62
2017-03-11T07:22:47.922Z,62
2017-03-11T07:24:01.814Z,62
2017-03-11T07:25:15.272Z,62
2017-03-11T07:26:29.203Z,62
2017-03-11T07:27:43.529Z,62
2017-03-11T07:28:56.991Z,62
2017-03-11T07:30:10.401Z,62
2017-03-11T07:31:24.413Z,62
2017-03-11T07:32:37.869Z,62
2017-03-11T07:33:52.046Z,62
2017-03-11T07:35:05.469Z,62
2017-03-11T07:36:19.069Z,62
2017-03-11T07:37:33.238Z,62
2017-03-11T07:38:47.073Z,62
2017-03-11T07:40:01.341Z,62
2017-03-11T07:41:15.194Z,62
2017-03-11T07:42:28.700Z,62
2017-03-11T07:43:42.167Z,62
2017-03-11T07:44:56.138Z,62
2017-03-11T07:46:09.874Z,62
2017-03-11T07:47:23.885Z,62
2017-03-11T07:48:37.319Z,62
2017-03-11T07:49:50.772Z,62
2017-03-11T07:51:04.643Z,62
2017-03-11T07:52:18.564Z,62
2017-03-11T07:53:32.033Z,63
2017-03-11T07:54:45.900Z,63
2017-03-11T07:55:59.843Z,63
2017-03-11T07:57:13.653Z,63
2017-03-11T07:58:27.486Z,63
2017-03-11T07:59:40.913Z,63
2017-03-11T08:00:54.395Z,63
2017-03-11T08:02:07.858Z,63
2017-03-11T08:03:21.448Z,63
2017-03-11T08:04:35.209Z,63
2017-03-11T08:05:48.696Z,63
2017-03-11T08:07:02.707Z,63
2017-03-11T08:08:16.308Z,64
2017-03-11T08:09:29.770Z,64
2017-03-11T08:10:43.521Z,64
2017-03-11T08:11:57.367Z,64
2017-03-11T08:13:11.448Z,64
2017-03-11T08:14:25.461Z,64
2017-03-11T08:15:38.885Z,64
2017-03-11T08:16:52.619Z,64
2017-03-11T08:18:06.072Z,64
2017-03-11T08:19:21.767Z,64
2017-03-11T08:20:35.241Z,64
2017-03-11T08:22:08.130Z,64
2017-03-11T08:23:22.072Z,64
2017-03-11T08:24:35.637Z,64
2017-03-11T08:25:49.297Z,64
2017-03-11T08:27:02.772Z,64
2017-03-11T08:28:16.806Z,64
2017-03-11T08:29:31.386Z,64
2017-03-11T08:30:44.810Z,65
2017-03-11T08:31:58.373Z,65
2017-03-11T08:33:11.849Z,65
2017-03-11T08:34:26.050Z,65
2017-03-11T08:35:40.252Z,65
2017-03-11T08:36:54.138Z,65
2017-03-11T08:38:08.087Z,65
2017-03-11T08:39:22.000Z,65
2017-03-11T08:40:35.825Z,65
2017-03-11T08:41:49.282Z,65
2017-03-11T08:43:02.827Z,65
2017-03-11T08:44:16.509Z,65
2017-03-11T08:45:30.103Z,65
2017-03-11T08:46:43.836Z,65
2017-03-11T08:47:57.300Z,65
2017-03-11T08:49:10.993Z,65
2017-03-11T08:50:24.773Z,65
2017-03-11T08:51:39.104Z,65
2017-03-11T08:52:52.840Z,65
2017-03-11T08:54:06.331Z,65
2017-03-11T08:55:19.836Z,65
2017-03-11T08:56:33.409Z,65
2017-03-11T08:57:46.908Z,65
2017-03-11T08:59:00.714Z,65
2017-03-11T09:00:14.157Z,65
2017-03-11T09:01:28.044Z,65
2017-03-11T09:02:41.502Z,65
2017-03-11T09:03:54.973Z,65
2017-03-11T09:05:08.689Z,65
2017-03-11T09:06:22.200Z,65
2017-03-11T09:07:35.682Z,65
2017-03-11T09:08:49.154Z,65
2017-03-11T09:10:02.648Z,65
2017-03-11T09:11:16.602Z,65
2017-03-11T09:12:30.284Z,65
2017-03-11T09:13:43.712Z,65
2017-03-11T09:14:57.592Z,65
2017-03-11T09:16:11.054Z,65
2017-03-11T09:17:24.604Z,65
2017-03-11T09:18:38.043Z,65
2017-03-11T09:19:51.597Z,65
2017-03-11T09:21:05.160Z,65
2017-03-11T09:22:19.059Z,65
2017-03-11T09:23:32.695Z,65
2017-03-11T09:24:46.135Z,65
2017-03-11T09:25:59.612Z,65
2017-03-11T09:27:13.529Z,65
2017-03-11T09:28:27.055Z,65
2017-03-11T09:29:40.972Z,65
2017-03-11T09:30:54.584Z,65
2017-03-11T09:32:08.159Z,65
2017-03-11T09:33:21.849Z,65
2017-03-11T09:34:36.154Z,65
2017-03-11T09:35:52.113Z,65
2017-03-11T09:37:05.597Z,65
2017-03-11T09:38:19.525Z,65
2017-03-11T09:39:33.026Z,65
2017-03-11T09:40:46.507Z,65
2017-03-11T09:42:01.243Z,65
2017-03-11T09:43:14.760Z,65
2017-03-11T09:44:28.265Z,65
2017-03-11T09:45:42.315Z,65
2017-03-11T09:46:56.637Z,66
2017-03-11T09:48:10.455Z,66
2017-03-11T09:49:23.963Z,66
2017-03-11T09:50:37.445Z,66
2017-03-11T09:51:50.894Z,66
2017-03-11T09:53:05.230Z,66
2017-03-11T09:54:19.350Z,66
2017-03-11T09:55:32.812Z,66
2017-03-11T09:56:46.591Z,66
2017-03-11T09:58:00.538Z,66
2017-03-11T09:59:14.638Z,66
2017-03-11T10:00:28.997Z,66
2017-03-11T10:01:43.104Z,66
2017-03-11T10:02:56.730Z,66
2017-03-11T10:04:10.200Z,66
2017-03-11T10:05:24.127Z,66
2017-03-11T10:06:38.449Z,66
2017-03-11T10:07:52.569Z,67
2017-03-11T10:09:06.466Z,67
2017-03-11T10:10:23.042Z,67
2017-03-11T10:11:36.777Z,67
2017-03-11T10:12:50.951Z,67
2017-03-11T10:14:08.422Z,67
2017-03-11T10:15:22.427Z,67
2017-03-11T10:16:37.447Z,67
2017-03-11T10:17:52.154Z,67
2017-03-11T10:19:06.093Z,67
2017-03-11T10:20:19.597Z,67
2017-03-11T10:21:33.064Z,67
2017-03-11T10:22:46.683Z,67
2017-03-11T10:24:01.034Z,67
2017-03-11T10:25:15.391Z,68
2017-03-11T10:26:29.326Z,68
2017-03-11T10:29:40.162Z,68
2017-03-11T10:30:54.433Z,68
2017-03-11T10:32:08.008Z,68
2017-03-11T10:33:21.942Z,68
2017-03-11T10:34:35.826Z,68
2017-03-11T10:35:50.249Z,68
2017-03-11T10:37:04.351Z,69
2017-03-11T10:38:17.905Z,69
2017-03-11T10:39:31.911Z,69
2017-03-11T10:40:45.637Z,69
2017-03-11T10:41:59.322Z,69
2017-03-11T10:43:13.097Z,69
2017-03-11T10:44:26.639Z,69
2017-03-11T10:45:40.732Z,69
2017-03-11T10:46:54.182Z,69
2017-03-11T10:48:07.667Z,69
2017-03-11T10:49:21.510Z,69
2017-03-11T10:50:35.495Z,69
2017-03-11T10:51:49.069Z,69
2017-03-11T10:53:02.914Z,69
2017-03-11T10:54:19.018Z,69
2017-03-11T10:55:32.860Z,69
2017-03-11T10:56:47.439Z,69
2017-03-11T10:58:01.120Z,69
2017-03-11T10:59:14.677Z,69
2017-03-11T11:00:28.104Z,69
2017-03-11T11:01:41.758Z,69
2017-03-11T11:02:55.227Z,69
2017-03-11T11:04:09.126Z,69
2017-03-11T11:05:23.095Z,69
2017-03-11T11:06:37.128Z,69
2017-03-11T11:07:50.794Z,69
2017-03-11T11:09:04.453Z,69
2017-03-11T11:10:18.646Z,69
2017-03-11T11:11:32.865Z,69
2017-03-11T11:12:46.475Z,69
2017-03-11T11:14:01.062Z,69
2017-03-11T11:15:15.104Z,69
2017-03-11T11:16:28.932Z,69
2017-03-11T11:17:42.543Z,69
2017-03-11T11:18:56.032Z,69
2017-03-11T11:20:09.778Z,69
2017-03-11T11:21:24.238Z,69
2017-03-11T11:22:37.823Z,69
2017-03-11T11:23:51.277Z,69
2017-03-11T11:25:04.740Z,70
2017-03-11T11:26:18.219Z,70
2017-03-11T11:27:31.705Z,70
2017-03-11T11:28:45.440Z,70
2017-03-11T11:29:59.343Z,70
2017-03-11T11:31:16.771Z,70
2017-03-11T11:32:30.627Z,70
2017-03-11T11:33:45.115Z,70
2017-03-11T11:34:58.979Z,70
2017-03-11T11:36:12.488Z,70
2017-03-11T11:37:25.953Z,70
2017-03-11T11:38:40.200Z,70
2017-03-11T11:39:54.099Z,70
2017-03-11T11:41:07.568Z,70
2017-03-11T11:42:21.038Z,70
2017-03-11T11:43:34.699Z,70
2017-03-11T11:44:48.870Z,70
2017-03-11T11:46:02.375Z,70
2017-03-11T11:47:15.803Z,70
2017-03-11T11:48:29.733Z,70
2017-03-11T11:49:43.264Z,70
2017-03-11T11:50:57.562Z,70
2017-03-11T11:52:11.586Z,70
2017-03-11T11:53:25.536Z,70
2017-03-11T11:54:39.158Z,70
2017-03-11T11:55:53.437Z,70
2017-03-11T11:57:07.614Z,70
2017-03-11T11:58:21.146Z,71
2017-03-11T11:59:35.463Z,71
2017-03-11T12:00:48.912Z,71
2017-03-11T12:02:02.801Z,71
2017-03-11T12:03:16.580Z,71
2017-03-11T12:04:30.595Z,71
2017-03-11T12:05:44.056Z,71
2017-03-11T12:06:57.783Z,71
2017-03-11T12:08:11.245Z,71
2017-03-11T12:11:10.941Z,70
2017-03-11T12:12:27.715Z,70
2017-03-11T12:13:41.164Z,70
2017-03-11T12:14:54.627Z,70
2017-03-11T12:16:08.584Z,70
2017-03-11T12:17:22.858Z,70
2017-03-11T12:18:36.598Z,70
2017-03-11T12:19:50.067Z,70
2017-03-11T12:21:03.851Z,70
2017-03-11T12:22:17.370Z,70
2017-03-11T12:23:31.370Z,70
2017-03-11T12:24:45.153Z,70
2017-03-11T12:25:59.335Z,70
2017-03-11T12:27:12.805Z,71
2017-03-11T12:28:26.295Z,71
2017-03-11T12:29:39.931Z,70
2017-03-11T12:30:53.743Z,70
2017-03-11T12:32:07.287Z,70
2017-03-11T12:34:49.857Z,71
2017-03-11T12:36:03.318Z,71
2017-03-11T12:37:17.688Z,71
2017-03-11T12:38:31.257Z,71
2017-03-11T12:39:44.795Z,71
2017-03-11T12:41:14.101Z,71
2017-03-11T12:42:28.555Z,71
2017-03-11T12:43:42.435Z,71
2017-03-11T12:44:56.330Z,71
2017-03-11T12:46:10.436Z,71
2017-03-11T12:47:25.617Z,71
2017-03-11T12:48:39.238Z,71
2017-03-11T12:49:53.200Z,71
2017-03-11T12:51:07.243Z,71
2017-03-11T12:52:22.243Z,72
2017-03-11T12:53:37.569Z,72
2017-03-11T12:54:51.472Z,72
2017-03-11T12:56:05.612Z,72
2017-03-11T12:57:19.938Z,72
2017-03-11T12:58:34.792Z,72
2017-03-11T12:59:48.686Z,72
2017-03-11T13:01:02.160Z,72
2017-03-11T13:02:15.754Z,72
2017-03-11T13:03:29.373Z,72
2017-03-11T13:04:42.838Z,72
2017-03-11T13:05:56.874Z,72
2017-03-11T13:07:10.511Z,72
2017-03-11T13:08:24.300Z,73
2017-03-11T13:09:38.320Z,73
2017-03-11T13:10:52.525Z,73
2017-03-11T13:12:06.098Z,73
2017-03-11T13:13:19.620Z,73
2017-03-11T13:14:33.419Z,73
2017-03-11T13:15:46.999Z,73
2017-03-11T13:17:00.977Z,73
2017-03-11T13:18:14.986Z,73
2017-03-11T13:19:28.936Z,73
2017-03-11T13:20:42.830Z,73
2017-03-11T13:22:22.744Z,73
2017-03-11T13:23:37.642Z,73
2017-03-11T13:24:51.976Z,73
2017-03-11T13:26:05.558Z,72
2017-03-11T13:27:20.039Z,72
2017-03-11T13:28:33.683Z,72
2017-03-11T13:29:48.301Z,72
2017-03-11T13:31:04.412Z,72
2017-03-11T13:32:18.346Z,72
2017-03-11T13:33:31.946Z,73
2017-03-11T13:34:45.441Z,73
2017-03-11T13:35:59.086Z,73
2017-03-11T13:37:13.399Z,73
2017-03-11T13:38:27.177Z,73
2017-03-11T13:39:41.112Z,73
2017-03-11T13:40:54.710Z,73
2017-03-11T13:42:09.192Z,73
2017-03-11T13:43:23.572Z,73
2017-03-11T13:44:38.056Z,73
2017-03-11T13:45:51.772Z,73
2017-03-11T13:47:05.310Z,74
2017-03-11T13:48:18.863Z,74
2017-03-11T13:49:33.049Z,74
2017-03-11T13:50:47.468Z,74
2017-03-11T13:52:00.964Z,74
2017-03-11T13:53:14.924Z,74
2017-03-11T13:54:28.487Z,74
2017-03-11T13:55:41.936Z,74
2017-03-11T13:56:55.822Z,74
2017-03-11T13:58:09.307Z,74
2017-03-11T13:59:23.212Z,74
2017-03-11T14:00:36.764Z,74
2017-03-11T14:01:50.223Z,74
2017-03-11T14:03:03.705Z,74
2017-03-11T14:04:17.249Z,74
2017-03-11T14:05:30.819Z,74
2017-03-11T14:06:44.365Z,74
2017-03-11T14:07:58.728Z,74
2017-03-11T14:09:12.830Z,74
2017-03-11T14:12:09.538Z,74
2017-03-11T14:13:23.702Z,74
2017-03-11T14:14:37.552Z,74
2017-03-11T14:15:51.450Z,74
2017-03-11T14:18:07.132Z,74
2017-03-11T14:19:20.602Z,74
2017-03-11T14:20:34.111Z,74
2017-03-11T14:21:48.422Z,74
2017-03-11T14:23:02.465Z,74
2017-03-11T14:24:15.940Z,74
2017-03-11T14:25:30.572Z,74
2017-03-11T14:26:44.143Z,74
2017-03-11T14:27:57.634Z,74
2017-03-11T14:29:11.165Z,74
2017-03-11T14:30:24.644Z,75
2017-03-11T14:31:38.193Z,75
2017-03-11T14:32:52.128Z,75
2017-03-11T14:34:05.765Z,75
2017-03-11T14:35:19.651Z,75
2017-03-11T14:36:33.524Z,75
2017-03-11T14:37:47.122Z,75
2017-03-11T14:39:01.175Z,75
2017-03-11T14:40:14.651Z,75
2017-03-11T14:41:28.676Z,75
2017-03-11T14:42:42.271Z,75
2017-03-11T14:43:56.305Z,75
2017-03-11T14:45:10.339Z,75
2017-03-11T14:46:23.856Z,75
2017-03-11T14:47:37.310Z,75
2017-03-11T14:48:53.016Z,74
2017-03-11T14:50:06.810Z,74
2017-03-11T14:51:21.127Z,74
2017-03-11T14:52:34.757Z,74
2017-03-11T14:53:48.660Z,74
2017-03-11T14:55:02.339Z,74
2017-03-11T14:56:16.436Z,74
2017-03-11T14:57:29.916Z,74
2017-03-11T14:58:44.065Z,74
2017-03-11T14:59:57.605Z,74
2017-03-11T15:01:11.113Z,74
2017-03-11T15:02:24.714Z,74
2017-03-11T15:03:39.144Z,74
2017-03-11T15:04:55.090Z,74
2017-03-11T15:06:38.538Z,74
2017-03-11T15:07:52.352Z,74
2017-03-11T15:09:05.775Z,74
2017-03-11T15:10:19.251Z,74
2017-03-11T15:11:33.206Z,74
2017-03-11T15:12:46.664Z,74
2017-03-11T15:14:00.163Z,74
2017-03-11T15:15:13.681Z,74
2017-03-11T15:16:27.162Z,74
2017-03-11T15:17:40.765Z,74
2017-03-11T15:18:54.668Z,74
2017-03-11T15:20:08.172Z,74
2017-03-11T15:21:21.943Z,74
2017-03-11T15:22:35.584Z,74
2017-03-11T15:23:49.054Z,74
2017-03-11T15:25:02.538Z,74
2017-03-11T15:26:16.862Z,74
2017-03-11T15:27:30.381Z,74
2017-03-11T15:28:43.873Z,73
2017-03-11T15:29:57.358Z,73
2017-03-11T15:31:11.582Z,73
2017-03-11T15:32:25.065Z,73
2017-03-11T15:33:39.090Z,73
2017-03-11T15:34:52.971Z,73
2017-03-11T15:36:06.457Z,73
2017-03-11T15:37:20.226Z,73
2017-03-11T15:38:34.249Z,73
2017-03-11T15:39:47.977Z,73
2017-03-11T15:41:01.432Z,73
2017-03-11T15:42:14.913Z,73
2017-03-11T15:43:28.867Z,74
2017-03-11T15:44:42.326Z,74
2017-03-11T15:45:56.768Z,74
2017-03-11T15:47:10.271Z,74
2017-03-11T15:48:23.759Z,74
2017-03-11T15:49:37.279Z,74
2017-03-11T15:50:50.761Z,74
2017-03-11T15:52:04.747Z,74
2017-03-11T15:53:18.685Z,74
2017-03-11T15:54:33.826Z,74
2017-03-11T15:55:47.764Z,74
2017-03-11T15:57:01.332Z,74
2017-03-11T15:59:28.195Z,73
2017-03-11T16:00:42.095Z,73
2017-03-11T16:01:56.065Z,73
2017-03-11T16:03:14.091Z,73
2017-03-11T16:04:28.725Z,73
2017-03-11T16:05:45.296Z,73
2017-03-11T16:06:59.614Z,73
2017-03-11T16:08:13.986Z,73
2017-03-11T16:09:28.374Z,73
2017-03-11T16:10:42.412Z,73
2017-03-11T16:11:56.444Z,73
2017-03-11T16:13:10.609Z,73
2017-03-11T16:14:24.265Z,73
2017-03-11T16:15:38.234Z,73
2017-03-11T16:16:52.577Z,73
2017-03-11T16:18:06.509Z,73
2017-03-11T16:19:20.933Z,73
2017-03-11T16:20:36.627Z,73
2017-03-11T16:21:50.195Z,73
2017-03-11T16:23:04.199Z,73
2017-03-11T16:24:18.077Z,73
2017-03-11T16:25:32.277Z,73
2017-03-11T16:26:46.750Z,73
2017-03-11T16:28:00.305Z,73
2017-03-11T16:29:13.780Z,73
2017-03-11T16:30:27.761Z,73
2017-03-11T16:31:41.291Z,73
2017-03-11T16:32:55.447Z,72
2017-03-11T16:34:09.760Z,72
2017-03-11T16:35:23.353Z,72
2017-03-11T16:36:36.869Z,72
2017-03-11T16:37:50.506Z,72
2017-03-11T16:39:03.951Z,72
2017-03-11T16:40:17.459Z,72
2017-03-11T16:41:31.514Z,72
2017-03-11T16:42:45.490Z,72
2017-03-11T16:43:59.874Z,72
2017-03-11T16:45:13.904Z,71
2017-03-11T16:46:27.674Z,71
2017-03-11T16:47:41.517Z,71
2017-03-11T16:48:55.498Z,71
2017-03-11T16:50:12.377Z,71
2017-03-11T16:51:26.485Z,71
2017-03-11T16:52:40.366Z,71
2017-03-11T16:53:54.238Z,71
2017-03-11T16:55:07.714Z,71
2017-03-11T16:56:22.177Z,71
2017-03-11T16:57:35.669Z,71
2017-03-11T16:58:49.174Z,71
2017-03-11T17:00:02.750Z,71
2017-03-11T17:01:16.277Z,71
2017-03-11T17:02:30.401Z,71
2017-03-11T17:03:44.081Z,71
2017-03-11T17:04:58.639Z,71
2017-03-11T17:06:12.139Z,71
2017-03-11T17:07:25.639Z,71
2017-03-11T17:08:39.874Z,71
2017-03-11T17:09:54.638Z,71
2017-03-11T17:11:08.563Z,70
2017-03-11T17:12:22.201Z,70
2017-03-11T17:13:35.659Z,70
2017-03-11T17:14:50.312Z,70
2017-03-11T17:16:04.297Z,70
2017-03-11T17:17:17.959Z,70
2017-03-11T17:18:31.437Z,70
2017-03-11T17:19:45.338Z,70
2017-03-11T17:20:59.352Z,70
2017-03-11T17:22:15.093Z,70
2017-03-11T17:23:29.110Z,70
2017-03-11T17:24:43.489Z,70
2017-03-11T17:25:57.371Z,70
2017-03-11T17:27:11.257Z,70
2017-03-11T17:28:25.256Z,70
2017-03-11T17:29:38.765Z,70
2017-03-11T17:30:52.263Z,70
2017-03-11T17:32:06.165Z,70
2017-03-11T17:33:19.786Z,70
2017-03-11T17:34:33.374Z,69
2017-03-11T17:36:19.301Z,69
2017-03-11T17:37:33.346Z,69
2017-03-11T17:38:47.372Z,69
2017-03-11T17:40:03.902Z,69
2017-03-11T17:41:18.253Z,69
2017-03-11T17:42:31.762Z,69
2017-03-11T17:43:45.936Z,69
2017-03-11T17:44:59.447Z,69
2017-03-11T17:46:14.425Z,69
2017-03-11T17:47:28.235Z,69
2017-03-11T17:48:41.911Z,69
2017-03-11T17:49:55.568Z,69